Time;durP1;ratioP1;P1;durP2;ratioP2;P2;SDS_P1;SDS_P2;PMS_P1;PMS_P2;Temp;Humidity;BMP_temperature;BMP_pressure;BME280_temperature;BME280_humidity;BME280_pressure;Samples;Min_cycle;Max_cycle;Signal;HPM_P1;HPM_P2
2021/12/06 00:00:48;;;;;;;1.60;1.50;;;;;;;;;;8282035;28;20072;-63
2021/12/06 00:04:48;;;;;;;2.08;1.85;;;;;;;;;;8286201;28;20470;-63
2021/12/06 00:08:48;;;;;;;2.38;1.50;;;;;;;;;;8285412;28;20607;-63
2021/12/06 00:12:49;;;;;;;1.98;1.77;;;;;;;;;;8283013;28;20036;-63
2021/12/06 00:16:50;;;;;;;3.00;1.73;;;;;;;;;;8286834;28;20083;-63
2021/12/06 00:20:50;;;;;;;2.25;1.70;;;;;;;;;;8287909;28;20471;-63
2021/12/06 00:24:52;;;;;;;1.70;1.60;;;;;;;;;;8284305;28;20375;-63
2021/12/06 00:28:57;;;;;;;2.13;1.70;;;;;;;;;;8287782;28;20021;-63
2021/12/06 00:32:57;;;;;;;1.70;1.60;;;;;;;;;;8283980;28;20073;-63
2021/12/06 00:37:41;;;;;;;2.72;1.50;;;;;;;;;;8284709;28;20545;-63
2021/12/06 00:41:24;;;;;;;3.38;1.73;;;;;;;;;;8283402;28;21041;-63
2021/12/06 00:45:24;;;;;;;2.90;1.80;;;;;;;;;;8284140;28;20061;-64
2021/12/06 00:49:24;;;;;;;2.28;1.60;;;;;;;;;;8285360;28;21049;-63
2021/12/06 00:53:25;;;;;;;3.45;1.73;;;;;;;;;;8284529;28;20678;-63
2021/12/06 00:57:25;;;;;;;1.80;1.70;;;;;;;;;;8282920;28;20060;-63
2021/12/06 01:01:26;;;;;;;4.18;2.17;;;;;;;;;;8284339;28;20620;-63
2021/12/06 01:05:26;;;;;;;2.38;1.95;;;;;;;;;;8281316;28;20026;-63
2021/12/06 01:09:27;;;;;;;3.63;1.90;;;;;;;;;;8284030;28;20106;-63
2021/12/06 01:13:27;;;;;;;2.90;1.50;;;;;;;;;;8282013;28;20025;-63
2021/12/06 01:17:27;;;;;;;2.53;1.63;;;;;;;;;;8280507;28;20133;-63
2021/12/06 01:21:41;;;;;;;4.15;1.67;;;;;;;;;;8283981;28;20507;-63
2021/12/06 01:30:19;;;;;;;2.20;1.95;;;;;;;;;;8282343;28;20524;-63
2021/12/06 01:43:02;;;;;;;3.08;2.28;;;;;;;;;;8283859;28;20130;-63
2021/12/06 01:47:04;;;;;;;4.03;2.92;;;;;;;;;;8284381;28;20463;-63
2021/12/06 01:51:05;;;;;;;3.83;2.38;;;;;;;;;;8283976;28;20152;-63
2021/12/06 01:55:07;;;;;;;2.35;1.98;;;;;;;;;;8282562;28;20533;-63
2021/12/06 01:59:08;;;;;;;2.47;2.25;;;;;;;;;;8280255;28;20047;-63
2021/12/06 02:03:08;;;;;;;3.15;2.85;;;;;;;;;;8281349;28;20505;-63
2021/12/06 02:07:13;;;;;;;3.40;3.00;;;;;;;;;;8281066;28;20028;-63
2021/12/06 02:11:14;;;;;;;3.78;2.90;;;;;;;;;;8279630;28;20277;-63
2021/12/06 02:15:33;;;;;;;4.45;3.20;;;;;;;;;;8281425;28;20033;-63
2021/12/06 02:19:38;;;;;;;5.47;3.03;;;;;;;;;;8283281;28;20037;-63
2021/12/06 02:23:39;;;;;;;3.65;3.00;;;;;;;;;;8281809;28;20032;-63
2021/12/06 02:27:39;;;;;;;3.75;2.92;;;;;;;;;;8278082;28;20025;-63
2021/12/06 02:31:40;;;;;;;4.40;3.28;;;;;;;;;;8270572;28;20142;-63
2021/12/06 02:35:40;;;;;;;3.40;2.60;;;;;;;;;;8288480;28;20025;-63
2021/12/06 02:39:40;;;;;;;3.53;2.03;;;;;;;;;;8288552;28;20135;-63
2021/12/06 02:43:41;;;;;;;2.10;1.90;;;;;;;;;;8285871;28;20030;-63
2021/12/06 02:47:42;;;;;;;4.55;2.25;;;;;;;;;;8288139;28;20044;-63
2021/12/06 02:51:42;;;;;;;2.08;1.60;;;;;;;;;;8289038;28;20026;-63
2021/12/06 02:55:43;;;;;;;3.60;2.15;;;;;;;;;;8285900;28;20033;-63
2021/12/06 02:59:44;;;;;;;4.93;1.92;;;;;;;;;;8287574;28;20061;-63
2021/12/06 03:03:44;;;;;;;3.22;2.92;;;;;;;;;;8288734;28;20068;-63
2021/12/06 03:07:49;;;;;;;4.30;3.90;;;;;;;;;;8286882;28;20259;-63
2021/12/06 03:11:52;;;;;;;7.80;5.25;;;;;;;;;;8286799;28;20112;-63
2021/12/06 03:15:52;;;;;;;6.78;5.15;;;;;;;;;;8286002;28;20820;-63
2021/12/06 03:19:52;;;;;;;8.70;6.25;;;;;;;;;;8286275;28;20041;-63
2021/12/06 03:23:54;;;;;;;11.23;6.60;;;;;;;;;;8284538;28;20021;-63
2021/12/06 03:27:54;;;;;;;8.90;5.30;;;;;;;;;;8286883;28;20025;-63
2021/12/06 03:31:54;;;;;;;7.85;5.13;;;;;;;;;;8288572;28;20313;-63
2021/12/06 03:35:54;;;;;;;7.60;5.20;;;;;;;;;;8289292;28;20055;-63
2021/12/06 03:39:55;;;;;;;7.68;5.88;;;;;;;;;;8283409;28;20056;-63
2021/12/06 03:43:57;;;;;;;9.00;6.18;;;;;;;;;;8285581;28;20036;-63
2021/12/06 03:47:57;;;;;;;7.07;4.82;;;;;;;;;;8284347;28;20060;-63
2021/12/06 03:51:57;;;;;;;8.52;6.47;;;;;;;;;;8285575;28;20148;-63
2021/12/06 03:55:58;;;;;;;16.55;7.82;;;;;;;;;;8281981;28;20916;-63
2021/12/06 03:59:58;;;;;;;15.15;8.95;;;;;;;;;;8286631;28;20482;-63
2021/12/06 04:04:00;;;;;;;16.73;9.80;;;;;;;;;;8286037;28;20046;-64
2021/12/06 04:08:00;;;;;;;16.05;9.10;;;;;;;;;;8284056;28;20022;-63
2021/12/06 04:12:00;;;;;;;19.17;12.02;;;;;;;;;;8283267;28;20512;-63
2021/12/06 04:16:01;;;;;;;14.68;10.73;;;;;;;;;;8284316;28;20121;-63
2021/12/06 04:20:02;;;;;;;14.52;10.75;;;;;;;;;;8286413;28;20029;-63
2021/12/06 04:24:03;;;;;;;16.33;9.80;;;;;;;;;;8286932;28;20072;-63
2021/12/06 04:28:06;;;;;;;13.82;10.55;;;;;;;;;;8285177;28;20036;-63
2021/12/06 04:32:07;;;;;;;16.35;11.93;;;;;;;;;;8283966;28;20124;-63
2021/12/06 04:36:08;;;;;;;21.77;13.48;;;;;;;;;;8284617;28;20052;-63
2021/12/06 04:40:09;;;;;;;23.73;13.27;;;;;;;;;;8284104;28;20037;-63
2021/12/06 04:44:09;;;;;;;16.58;12.43;;;;;;;;;;8283699;28;20029;-63
2021/12/06 04:48:10;;;;;;;28.98;14.40;;;;;;;;;;8284120;28;20066;-63
2021/12/06 04:52:11;;;;;;;31.33;16.52;;;;;;;;;;8284406;28;20137;-63
2021/12/06 04:56:17;;;;;;;29.20;14.85;;;;;;;;;;8279747;28;20357;-63
2021/12/06 05:00:27;;;;;;;34.58;16.40;;;;;;;;;;8279338;28;20457;-63
2021/12/06 05:04:29;;;;;;;24.33;16.05;;;;;;;;;;8283294;28;20123;-63
2021/12/06 05:08:31;;;;;;;23.48;14.63;;;;;;;;;;8282735;28;20037;-63
2021/12/06 05:12:32;;;;;;;19.13;13.38;;;;;;;;;;8273356;28;20342;-63
2021/12/06 05:16:35;;;;;;;21.73;12.63;;;;;;;;;;8284128;28;20041;-63
2021/12/06 05:20:35;;;;;;;14.20;11.13;;;;;;;;;;8281196;28;20029;-63
2021/12/06 05:24:36;;;;;;;12.82;9.80;;;;;;;;;;8284795;28;20071;-63
2021/12/06 05:28:42;;;;;;;14.23;10.75;;;;;;;;;;8282118;28;20116;-63
2021/12/06 05:32:43;;;;;;;16.77;11.43;;;;;;;;;;8280699;28;20037;-63
2021/12/06 05:36:43;;;;;;;16.88;12.73;;;;;;;;;;8283468;28;20022;-63
2021/12/06 05:40:46;;;;;;;20.70;12.52;;;;;;;;;;8281860;28;20032;-63
2021/12/06 05:44:46;;;;;;;19.23;11.65;;;;;;;;;;8282330;28;20607;-63
2021/12/06 05:48:47;;;;;;;15.85;11.20;;;;;;;;;;8277905;28;20563;-63
2021/12/06 05:52:49;;;;;;;20.17;11.10;;;;;;;;;;8278823;28;20411;-63
2021/12/06 05:56:49;;;;;;;15.07;11.93;;;;;;;;;;8282927;28;20131;-63
2021/12/06 06:00:50;;;;;;;14.43;11.27;;;;;;;;;;8279760;28;20049;-63
2021/12/06 06:04:50;;;;;;;15.63;11.63;;;;;;;;;;8281652;28;20437;-63
2021/12/06 06:08:50;;;;;;;14.38;10.48;;;;;;;;;;8281564;28;20025;-63
2021/12/06 06:12:50;;;;;;;13.60;10.60;;;;;;;;;;8279693;28;20021;-63
2021/12/06 06:16:52;;;;;;;14.70;10.88;;;;;;;;;;8279587;28;20605;-63
2021/12/06 06:20:53;;;;;;;17.42;11.43;;;;;;;;;;8281835;28;20572;-63
2021/12/06 06:24:54;;;;;;;16.60;10.73;;;;;;;;;;8268975;28;20037;-63
2021/12/06 06:28:54;;;;;;;17.40;12.30;;;;;;;;;;8278590;28;20028;-63
2021/12/06 06:32:54;;;;;;;19.02;13.18;;;;;;;;;;8281189;28;20387;-64
2021/12/06 06:36:54;;;;;;;16.38;11.23;;;;;;;;;;8281845;28;20539;-63
2021/12/06 06:40:55;;;;;;;16.92;11.98;;;;;;;;;;8279562;28;20036;-63
2021/12/06 06:44:55;;;;;;;18.83;12.23;;;;;;;;;;8276991;28;20594;-63
2021/12/06 06:48:56;;;;;;;18.65;12.50;;;;;;;;;;8278755;28;20048;-64
2021/12/06 06:52:56;;;;;;;17.55;11.77;;;;;;;;;;8281813;28;20644;-64
2021/12/06 06:56:57;;;;;;;19.65;12.10;;;;;;;;;;8278145;28;20568;-64
2021/12/06 07:00:57;;;;;;;16.45;11.02;;;;;;;;;;8277246;28;20079;-64
2021/12/06 07:04:57;;;;;;;16.08;12.20;;;;;;;;;;8279724;28;20275;-64
2021/12/06 07:08:58;;;;;;;26.70;16.13;;;;;;;;;;8278320;28;20036;-63
2021/12/06 07:13:00;;;;;;;23.88;15.85;;;;;;;;;;8280723;28;20377;-64
2021/12/06 07:17:00;;;;;;;18.52;13.10;;;;;;;;;;8269771;28;20332;-64
2021/12/06 07:21:01;;;;;;;17.30;12.25;;;;;;;;;;8281707;28;20119;-63
2021/12/06 07:25:02;;;;;;;16.20;12.10;;;;;;;;;;8284553;28;20438;-64
2021/12/06 07:29:03;;;;;;;18.13;12.27;;;;;;;;;;8281856;28;20144;-64
2021/12/06 07:33:04;;;;;;;17.17;11.98;;;;;;;;;;8287220;28;20052;-63
2021/12/06 07:37:04;;;;;;;14.95;11.20;;;;;;;;;;8287556;28;20652;-64
2021/12/06 07:41:10;;;;;;;16.02;11.85;;;;;;;;;;8286736;28;20037;-64
2021/12/06 07:45:11;;;;;;;20.10;11.68;;;;;;;;;;8285442;28;20032;-64
2021/12/06 07:49:11;;;;;;;15.20;10.45;;;;;;;;;;8284970;28;20029;-64
2021/12/06 07:53:11;;;;;;;17.83;11.18;;;;;;;;;;8286493;28;20082;-64
2021/12/06 07:57:12;;;;;;;18.25;11.95;;;;;;;;;;8285925;28;20017;-64
2021/12/06 08:01:13;;;;;;;23.55;13.30;;;;;;;;;;8282318;28;20461;-64
2021/12/06 08:05:33;;;;;;;18.45;12.82;;;;;;;;;;8281566;28;20454;-64
2021/12/06 08:09:33;;;;;;;19.02;12.95;;;;;;;;;;8285016;28;20772;-64
2021/12/06 08:13:34;;;;;;;21.33;12.60;;;;;;;;;;8285140;28;20110;-64
2021/12/06 08:17:35;;;;;;;18.30;13.43;;;;;;;;;;8283464;28;20748;-64
2021/12/06 08:21:35;;;;;;;20.38;13.88;;;;;;;;;;8284802;28;20060;-64
2021/12/06 08:25:35;;;;;;;22.98;13.35;;;;;;;;;;8283678;28;20551;-64
2021/12/06 08:29:35;;;;;;;19.52;13.63;;;;;;;;;;8285186;28;20704;-64
2021/12/06 08:33:36;;;;;;;19.65;14.15;;;;;;;;;;8284256;28;20358;-64
2021/12/06 08:37:36;;;;;;;20.52;13.25;;;;;;;;;;8285212;28;20301;-64
2021/12/06 08:41:36;;;;;;;21.80;13.95;;;;;;;;;;8281202;28;20479;-64
2021/12/06 08:45:36;;;;;;;18.45;11.88;;;;;;;;;;8282101;28;20575;-64
2021/12/06 08:49:36;;;;;;;14.77;10.48;;;;;;;;;;8284517;28;20368;-64
2021/12/06 08:53:37;;;;;;;12.98;9.82;;;;;;;;;;8282110;28;20033;-64
2021/12/06 08:57:37;;;;;;;15.40;9.48;;;;;;;;;;8282322;28;20033;-64
2021/12/06 09:01:38;;;;;;;10.73;8.30;;;;;;;;;;8282167;28;20575;-64
2021/12/06 09:05:42;;;;;;;14.82;9.73;;;;;;;;;;8283543;28;20275;-64
2021/12/06 09:09:49;;;;;;;16.65;11.20;;;;;;;;;;8285472;28;20029;-64
2021/12/06 09:13:49;;;;;;;24.52;14.63;;;;;;;;;;8283444;28;20068;-64
2021/12/06 09:17:51;;;;;;;18.85;13.30;;;;;;;;;;8280935;28;20117;-64
2021/12/06 09:21:51;;;;;;;18.83;12.38;;;;;;;;;;8281654;28;20461;-64
2021/12/06 09:25:51;;;;;;;14.65;10.18;;;;;;;;;;8283704;28;20090;-64
2021/12/06 09:29:51;;;;;;;11.00;8.65;;;;;;;;;;8282840;28;20178;-64
2021/12/06 09:33:51;;;;;;;8.90;6.32;;;;;;;;;;8281595;28;20576;-65
2021/12/06 09:37:52;;;;;;;8.02;6.00;;;;;;;;;;8278339;28;20029;-64
2021/12/06 09:41:53;;;;;;;4.75;4.18;;;;;;;;;;8281909;28;20040;-64
2021/12/06 09:45:53;;;;;;;6.05;4.60;;;;;;;;;;8282234;28;20045;-64
2021/12/06 09:49:54;;;;;;;9.13;5.47;;;;;;;;;;8281443;28;20479;-64
2021/12/06 09:53:55;;;;;;;7.80;5.18;;;;;;;;;;8281434;28;20064;-64
2021/12/06 09:57:55;;;;;;;13.00;9.07;;;;;;;;;;8282416;28;20554;-64
2021/12/06 10:02:08;;;;;;;13.53;8.47;;;;;;;;;;8282457;28;20422;-64
2021/12/06 10:06:09;;;;;;;11.55;7.05;;;;;;;;;;8279402;28;20406;-64
2021/12/06 10:10:11;;;;;;;7.70;4.20;;;;;;;;;;8265725;28;20485;-64
2021/12/06 10:14:11;;;;;;;4.57;3.58;;;;;;;;;;8279861;28;20028;-64
2021/12/06 10:18:16;;;;;;;5.82;3.75;;;;;;;;;;8281460;28;20047;-64
2021/12/06 10:22:16;;;;;;;4.32;3.15;;;;;;;;;;8283398;28;20033;-64
2021/12/06 10:26:20;;;;;;;3.90;3.03;;;;;;;;;;8279353;28;20033;-64
2021/12/06 10:30:21;;;;;;;4.55;3.90;;;;;;;;;;8279119;28;20140;-64
2021/12/06 10:34:24;;;;;;;3.40;3.10;;;;;;;;;;8280068;28;20048;-64
2021/12/06 10:38:36;;;;;;;4.93;3.40;;;;;;;;;;8280071;28;20338;-64
2021/12/06 10:42:39;;;;;;;3.72;3.10;;;;;;;;;;8282661;28;20593;-64
2021/12/06 10:46:49;;;;;;;4.18;3.00;;;;;;;;;;8280073;28;20088;-64
2021/12/06 10:50:52;;;;;;;2.58;2.03;;;;;;;;;;8282902;28;20021;-64
2021/12/06 10:54:53;;;;;;;6.78;2.83;;;;;;;;;;8282998;28;20040;-64
2021/12/06 10:58:54;;;;;;;4.10;2.72;;;;;;;;;;8286378;28;20851;-64
2021/12/06 11:02:54;;;;;;;4.78;2.58;;;;;;;;;;8283223;28;20588;-64
2021/12/06 11:07:00;;;;;;;5.97;2.90;;;;;;;;;;8288541;28;20025;-64
2021/12/06 11:11:03;;;;;;;8.07;3.28;;;;;;;;;;8286185;28;20283;-64
2021/12/06 11:15:11;;;;;;;8.57;5.40;;;;;;;;;;8285508;28;20036;-64
2021/12/06 11:19:12;;;;;;;4.85;3.13;;;;;;;;;;8287678;28;20022;-64
2021/12/06 11:23:14;;;;;;;4.65;3.22;;;;;;;;;;8295445;28;20040;-64
2021/12/06 11:27:23;;;;;;;2.92;2.38;;;;;;;;;;8291053;28;20131;-64
2021/12/06 11:31:23;;;;;;;2.83;2.50;;;;;;;;;;8290231;28;20612;-64
2021/12/06 11:35:24;;;;;;;3.78;3.30;;;;;;;;;;8291987;28;20113;-64
2021/12/06 11:39:25;;;;;;;8.27;5.95;;;;;;;;;;8291448;28;20025;-64
2021/12/06 11:43:25;;;;;;;6.40;4.30;;;;;;;;;;8292589;28;20022;-64
2021/12/06 11:47:26;;;;;;;6.63;4.40;;;;;;;;;;8291947;28;20251;-65
2021/12/06 11:51:26;;;;;;;6.28;4.50;;;;;;;;;;8290778;28;20034;-64
2021/12/06 11:55:26;;;;;;;5.90;5.00;;;;;;;;;;8289812;28;20090;-64
2021/12/06 11:59:26;;;;;;;9.07;5.25;;;;;;;;;;8304615;28;20289;-64
2021/12/06 12:03:31;;;;;;;8.20;5.60;;;;;;;;;;8282475;28;20910;-64
2021/12/06 12:07:50;;;;;;;7.13;5.15;;;;;;;;;;8280029;28;20028;-64
2021/12/06 12:11:53;;;;;;;7.70;5.57;;;;;;;;;;8286482;28;20115;-64
2021/12/06 12:15:55;;;;;;;8.88;5.30;;;;;;;;;;8284854;28;20123;-64
2021/12/06 12:19:56;;;;;;;8.90;5.53;;;;;;;;;;8286382;28;20021;-64
2021/12/06 12:23:58;;;;;;;9.15;5.70;;;;;;;;;;8286606;28;20111;-64
2021/12/06 12:28:12;;;;;;;9.85;5.93;;;;;;;;;;8289832;28;20026;-64
2021/12/06 12:32:12;;;;;;;9.32;5.65;;;;;;;;;;8291991;28;20141;-64
2021/12/06 12:36:14;;;;;;;7.05;5.07;;;;;;;;;;8289618;28;20532;-64
2021/12/06 12:40:16;;;;;;;7.95;5.53;;;;;;;;;;8288377;28;20025;-64
2021/12/06 12:44:17;;;;;;;7.57;4.97;;;;;;;;;;8287990;28;20683;-64
2021/12/06 12:48:22;;;;;;;5.95;4.25;;;;;;;;;;8289726;28;20049;-64
2021/12/06 12:52:41;;;;;;;5.90;3.90;;;;;;;;;;8286937;28;20147;-64
2021/12/06 12:56:43;;;;;;;4.20;3.53;;;;;;;;;;8291932;28;20148;-64
2021/12/06 13:00:44;;;;;;;5.03;3.88;;;;;;;;;;8285029;28;20046;-64
2021/12/06 13:05:13;;;;;;;7.45;3.63;;;;;;;;;;8289886;28;20429;-64
2021/12/06 13:09:19;;;;;;;6.75;4.65;;;;;;;;;;8280194;28;20459;-64
2021/12/06 13:13:29;;;;;;;5.90;3.83;;;;;;;;;;8288312;28;20022;-64
2021/12/06 13:17:44;;;;;;;5.75;4.03;;;;;;;;;;8285626;28;20034;-64
2021/12/06 13:21:47;;;;;;;5.80;3.85;;;;;;;;;;8288305;28;20060;-64
2021/12/06 13:25:47;;;;;;;4.55;3.50;;;;;;;;;;8285922;28;20022;-65
2021/12/06 13:29:49;;;;;;;3.38;2.78;;;;;;;;;;8290253;28;20397;-64
2021/12/06 13:33:49;;;;;;;2.83;2.53;;;;;;;;;;8283286;28;20096;-64
2021/12/06 13:38:08;;;;;;;4.72;2.72;;;;;;;;;;8283529;28;20018;-64
2021/12/06 13:42:12;;;;;;;2.80;2.50;;;;;;;;;;8284809;28;20025;-64
2021/12/06 13:46:21;;;;;;;3.38;2.50;;;;;;;;;;8285467;28;20040;-65
2021/12/06 13:50:25;;;;;;;2.88;2.42;;;;;;;;;;8285839;28;20025;-64
2021/12/06 13:54:28;;;;;;;3.28;2.13;;;;;;;;;;8288099;28;20033;-64
2021/12/06 13:58:29;;;;;;;5.32;2.38;;;;;;;;;;8288597;28;20052;-64
2021/12/06 14:02:29;;;;;;;3.67;2.40;;;;;;;;;;8287306;28;20148;-64
2021/12/06 14:06:41;;;;;;;3.05;1.98;;;;;;;;;;8287308;28;20048;-64
2021/12/06 14:10:41;;;;;;;3.47;2.83;;;;;;;;;;8285511;28;20039;-64
2021/12/06 14:14:42;;;;;;;3.55;2.80;;;;;;;;;;8272967;28;20617;-64
2021/12/06 14:18:42;;;;;;;3.90;2.35;;;;;;;;;;8284982;28;20268;-64
2021/12/06 14:22:44;;;;;;;2.97;2.00;;;;;;;;;;8287657;28;20039;-64
2021/12/06 14:26:44;;;;;;;2.70;2.15;;;;;;;;;;8288851;28;20033;-64
2021/12/06 14:30:45;;;;;;;4.28;2.28;;;;;;;;;;8291971;28;20513;-64
2021/12/06 14:34:45;;;;;;;3.15;2.42;;;;;;;;;;8293787;28;20025;-64
2021/12/06 14:38:45;;;;;;;3.50;2.30;;;;;;;;;;8294130;28;20032;-64
2021/12/06 14:42:46;;;;;;;2.72;1.83;;;;;;;;;;8293869;28;20639;-64
2021/12/06 14:46:46;;;;;;;2.75;2.00;;;;;;;;;;8293173;28;20034;-64
2021/12/06 14:51:00;;;;;;;3.60;2.00;;;;;;;;;;8292272;28;20029;-64
2021/12/06 14:55:26;;;;;;;2.33;2.03;;;;;;;;;;8290453;28;20047;-64
2021/12/06 14:59:32;;;;;;;3.25;2.08;;;;;;;;;;8292272;28;20092;-64
2021/12/06 15:03:38;;;;;;;2.10;1.70;;;;;;;;;;8288285;28;20088;-64
2021/12/06 15:07:38;;;;;;;4.93;3.25;;;;;;;;;;8291486;28;20025;-64
2021/12/06 15:11:39;;;;;;;3.25;2.25;;;;;;;;;;8292222;28;20029;-64
2021/12/06 15:15:42;;;;;;;3.65;3.03;;;;;;;;;;8290256;28;20141;-65
2021/12/06 15:19:43;;;;;;;4.85;3.13;;;;;;;;;;8288132;28;20468;-64
2021/12/06 15:23:49;;;;;;;4.43;2.85;;;;;;;;;;8286954;28;20026;-64
2021/12/06 15:27:50;;;;;;;3.70;2.72;;;;;;;;;;8288950;28;20423;-64
2021/12/06 15:31:52;;;;;;;5.72;2.53;;;;;;;;;;8285745;28;20046;-64
2021/12/06 15:35:54;;;;;;;2.28;1.98;;;;;;;;;;8288211;28;20026;-64
2021/12/06 15:39:54;;;;;;;2.20;2.00;;;;;;;;;;8282628;28;20596;-64
2021/12/06 15:43:54;;;;;;;2.33;2.00;;;;;;;;;;8283447;28;20839;-64
2021/12/06 15:47:55;;;;;;;2.05;1.88;;;;;;;;;;8284105;28;20774;-64
2021/12/06 15:51:58;;;;;;;6.50;2.22;;;;;;;;;;8284191;28;20033;-64
2021/12/06 15:55:59;;;;;;;3.28;1.88;;;;;;;;;;8286816;28;20021;-64
2021/12/06 16:00:20;;;;;;;2.53;1.90;;;;;;;;;;8285767;28;20450;-64
2021/12/06 16:04:21;;;;;;;1.75;1.60;;;;;;;;;;8287105;28;20132;-64
2021/12/06 16:08:22;;;;;;;3.00;2.10;;;;;;;;;;8285940;28;20045;-64
2021/12/06 16:12:22;;;;;;;3.13;1.92;;;;;;;;;;8285908;28;20037;-64
2021/12/06 16:16:22;;;;;;;3.00;2.20;;;;;;;;;;8285249;28;21393;-64
2021/12/06 16:20:24;;;;;;;3.55;2.50;;;;;;;;;;8283611;28;20025;-64
2021/12/06 16:24:25;;;;;;;3.63;2.47;;;;;;;;;;8287467;28;20920;-64
2021/12/06 16:28:25;;;;;;;4.13;2.80;;;;;;;;;;8284278;28;20053;-64
2021/12/06 16:32:29;;;;;;;3.83;2.73;;;;;;;;;;8281098;28;20061;-64
2021/12/06 16:36:32;;;;;;;2.97;2.57;;;;;;;;;;8280707;28;20282;-64
2021/12/06 16:40:36;;;;;;;4.55;2.70;;;;;;;;;;8283856;28;20029;-64
2021/12/06 16:44:36;;;;;;;;;;;;;;;;;;8285954;28;20037;-64
2021/12/06 16:48:46;;;;;;;4.07;2.78;;;;;;;;;;8284118;28;20374;-64
2021/12/06 16:52:51;;;;;;;3.63;2.35;;;;;;;;;;8283526;28;20030;-64
2021/12/06 16:56:55;;;;;;;2.97;2.50;;;;;;;;;;8286504;28;20109;-64
2021/12/06 17:00:57;;;;;;;3.83;2.40;;;;;;;;;;8283150;28;20224;-64
2021/12/06 17:04:57;;;;;;;4.03;2.72;;;;;;;;;;8284382;28;20569;-64
2021/12/06 17:08:59;;;;;;;3.20;2.45;;;;;;;;;;8282865;28;20541;-64
2021/12/06 17:13:00;;;;;;;3.85;2.70;;;;;;;;;;8280161;28;20014;-64
2021/12/06 17:17:01;;;;;;;3.75;2.90;;;;;;;;;;8280370;28;20041;-64
2021/12/06 17:21:05;;;;;;;3.80;3.05;;;;;;;;;;8281244;28;20021;-64
2021/12/06 17:25:07;;;;;;;6.60;3.20;;;;;;;;;;8278785;28;20558;-64
2021/12/06 17:29:13;;;;;;;3.80;2.60;;;;;;;;;;8266990;28;20060;-64
2021/12/06 17:33:15;;;;;;;5.40;2.83;;;;;;;;;;8281720;28;20555;-64
2021/12/06 17:37:15;;;;;;;3.00;2.75;;;;;;;;;;8282023;28;20104;-64
2021/12/06 17:41:18;;;;;;;4.18;2.90;;;;;;;;;;8279892;28;20519;-64
2021/12/06 17:45:18;;;;;;;4.53;3.10;;;;;;;;;;8280549;28;20068;-64
2021/12/06 17:49:18;;;;;;;4.10;2.65;;;;;;;;;;8277580;28;20451;-64
2021/12/06 17:53:18;;;;;;;3.70;3.08;;;;;;;;;;8281612;28;20500;-64
2021/12/06 17:57:26;;;;;;;4.43;3.20;;;;;;;;;;8275808;28;20030;-64
2021/12/06 18:01:29;;;;;;;3.33;2.83;;;;;;;;;;8277891;28;20441;-64
2021/12/06 18:05:29;;;;;;;3.97;3.50;;;;;;;;;;8275153;28;20552;-64
2021/12/06 18:09:30;;;;;;;4.15;3.00;;;;;;;;;;8277005;28;20508;-64
2021/12/06 18:13:32;;;;;;;5.50;3.97;;;;;;;;;;8279774;28;20064;-64
2021/12/06 18:17:33;;;;;;;4.82;3.40;;;;;;;;;;8278572;28;20494;-64
2021/12/06 18:21:35;;;;;;;11.60;9.15;;;;;;;;;;8278698;28;20060;-64
2021/12/06 18:25:36;;;;;;;6.72;4.40;;;;;;;;;;8279165;28;20029;-64
2021/12/06 18:29:37;;;;;;;5.28;3.55;;;;;;;;;;8278777;28;20589;-64
2021/12/06 18:33:41;;;;;;;6.15;4.38;;;;;;;;;;8276635;28;20483;-64
2021/12/06 18:37:44;;;;;;;5.35;3.92;;;;;;;;;;8277852;28;20041;-64
2021/12/06 18:41:45;;;;;;;4.68;3.30;;;;;;;;;;8277684;28;20056;-64
2021/12/06 18:45:45;;;;;;;4.50;3.38;;;;;;;;;;8277734;28;20037;-65
2021/12/06 18:49:47;;;;;;;4.10;3.70;;;;;;;;;;8278083;28;20029;-64
2021/12/06 18:53:52;;;;;;;8.05;4.30;;;;;;;;;;8283592;28;20538;-64
2021/12/06 18:57:52;;;;;;;4.78;3.85;;;;;;;;;;8276478;28;20552;-64
2021/12/06 19:01:53;;;;;;;6.55;4.30;;;;;;;;;;8276294;28;20430;-64
2021/12/06 19:05:54;;;;;;;10.32;6.93;;;;;;;;;;8280672;28;20059;-64
2021/12/06 19:09:54;;;;;;;7.60;4.55;;;;;;;;;;8278300;28;20204;-64
2021/12/06 19:13:54;;;;;;;6.40;4.57;;;;;;;;;;8279463;28;20037;-65
2021/12/06 19:17:54;;;;;;;7.75;5.03;;;;;;;;;;8284283;28;20034;-64
2021/12/06 19:21:54;;;;;;;7.00;4.72;;;;;;;;;;8283853;28;20401;-64
2021/12/06 19:25:56;;;;;;;8.77;5.75;;;;;;;;;;8283931;28;20076;-64
2021/12/06 19:29:56;;;;;;;6.75;5.15;;;;;;;;;;8281430;28;20037;-64
2021/12/06 19:33:57;;;;;;;9.18;5.60;;;;;;;;;;8283762;28;20859;-64
2021/12/06 19:37:57;;;;;;;18.75;9.43;;;;;;;;;;8283778;28;20342;-64
2021/12/06 19:41:58;;;;;;;11.63;6.50;;;;;;;;;;8282613;28;20391;-64
2021/12/06 19:45:58;;;;;;;16.77;8.85;;;;;;;;;;8283380;28;20064;-64
2021/12/06 19:49:58;;;;;;;16.08;8.73;;;;;;;;;;8282962;28;20036;-64
2021/12/06 19:53:58;;;;;;;10.63;6.68;;;;;;;;;;8283147;28;20021;-64
2021/12/06 19:57:59;;;;;;;7.35;5.70;;;;;;;;;;8271811;28;20398;-64
2021/12/06 20:01:59;;;;;;;6.05;5.30;;;;;;;;;;8278214;28;20652;-64
2021/12/06 20:05:59;;;;;;;7.85;5.78;;;;;;;;;;8282397;28;20110;-64
2021/12/06 20:10:00;;;;;;;7.50;4.82;;;;;;;;;;8286828;28;20628;-64
2021/12/06 20:14:00;;;;;;;8.32;5.60;;;;;;;;;;8281086;28;20064;-64
2021/12/06 20:18:01;;;;;;;7.07;5.30;;;;;;;;;;8280443;28;20048;-64
2021/12/06 20:22:01;;;;;;;9.45;5.70;;;;;;;;;;8252959;28;20037;-64
2021/12/06 20:26:02;;;;;;;5.97;4.80;;;;;;;;;;8226455;28;20456;-64
2021/12/06 20:30:04;;;;;;;7.60;5.60;;;;;;;;;;8265737;28;20119;-64
2021/12/06 20:34:04;;;;;;;7.68;5.38;;;;;;;;;;8277770;28;20577;-64
2021/12/06 20:38:04;;;;;;;8.32;5.72;;;;;;;;;;8268341;28;20020;-64
2021/12/06 20:42:06;;;;;;;7.90;5.40;;;;;;;;;;8281274;28;20026;-64
2021/12/06 20:46:06;;;;;;;8.68;5.28;;;;;;;;;;8278630;28;20064;-64
2021/12/06 20:50:07;;;;;;;5.57;4.57;;;;;;;;;;8281040;28;20025;-64
2021/12/06 20:54:09;;;;;;;6.45;4.28;;;;;;;;;;8282415;28;20088;-64
2021/12/06 20:58:09;;;;;;;6.72;5.05;;;;;;;;;;8280563;28;20495;-64
2021/12/06 21:02:10;;;;;;;6.25;4.15;;;;;;;;;;8279261;28;20608;-65
2021/12/06 21:06:13;;;;;;;6.15;4.25;;;;;;;;;;8280840;28;20497;-64
2021/12/06 21:10:17;;;;;;;5.30;4.00;;;;;;;;;;8281476;28;20787;-64
2021/12/06 21:18:36;;;;;;;5.93;4.45;;;;;;;;;;8275602;28;20084;-64
2021/12/06 21:22:36;;;;;;;14.75;8.55;;;;;;;;;;8266898;28;20577;-64
2021/12/06 21:26:36;;;;;;;8.63;6.03;;;;;;;;;;8279178;28;20025;-64
2021/12/06 21:30:37;;;;;;;7.93;5.47;;;;;;;;;;8279161;28;20079;-64
2021/12/06 21:34:38;;;;;;;7.03;4.93;;;;;;;;;;8282558;28;20299;-65
2021/12/06 21:38:39;;;;;;;7.67;4.27;;;;;;;;;;8278827;28;20033;-64
2021/12/06 21:42:39;;;;;;;6.85;4.80;;;;;;;;;;8279560;28;20292;-64
2021/12/06 21:46:39;;;;;;;5.90;4.82;;;;;;;;;;8279836;28;20463;-64
2021/12/06 21:50:39;;;;;;;7.50;4.63;;;;;;;;;;8280608;28;20111;-64
2021/12/06 21:54:40;;;;;;;6.73;4.40;;;;;;;;;;8278203;28;20280;-64
2021/12/06 21:58:40;;;;;;;5.88;4.10;;;;;;;;;;8280547;28;20315;-64
2021/12/06 22:02:41;;;;;;;5.15;3.85;;;;;;;;;;8273885;28;20041;-64
2021/12/06 22:06:42;;;;;;;6.13;3.90;;;;;;;;;;8279960;28;20561;-64
2021/12/06 22:10:43;;;;;;;3.28;2.83;;;;;;;;;;8277895;28;20445;-64
2021/12/06 22:14:44;;;;;;;3.35;2.90;;;;;;;;;;8276687;28;20462;-64
2021/12/06 22:18:44;;;;;;;3.00;2.70;;;;;;;;;;8275433;28;20453;-64
2021/12/06 22:22:48;;;;;;;3.13;2.70;;;;;;;;;;8276518;28;20047;-64
2021/12/06 22:26:48;;;;;;;;;;;;;;;;;;8278891;28;21245;-64
2021/12/06 22:30:48;;;;;;;4.00;2.80;;;;;;;;;;8278255;28;20035;-64
2021/12/06 22:34:49;;;;;;;2.67;2.47;;;;;;;;;;8278193;28;20029;-64
2021/12/06 22:38:49;;;;;;;3.00;2.70;;;;;;;;;;8276857;28;20401;-64
2021/12/06 22:42:49;;;;;;;3.30;2.75;;;;;;;;;;8280612;28;20291;-64
2021/12/06 22:46:50;;;;;;;2.78;2.33;;;;;;;;;;8277699;28;20373;-64
2021/12/06 22:50:51;;;;;;;3.15;2.85;;;;;;;;;;8284874;28;20029;-64
2021/12/06 22:54:51;;;;;;;3.05;2.60;;;;;;;;;;8283263;28;20325;-64
2021/12/06 22:58:51;;;;;;;2.75;2.45;;;;;;;;;;8282946;28;20343;-64
2021/12/06 23:02:52;;;;;;;5.43;3.17;;;;;;;;;;8281488;28;20052;-64
2021/12/06 23:06:52;;;;;;;2.95;2.65;;;;;;;;;;8282825;28;20025;-64
2021/12/06 23:10:53;;;;;;;3.15;2.85;;;;;;;;;;8283248;28;20040;-64
2021/12/06 23:14:56;;;;;;;4.60;2.83;;;;;;;;;;8286097;28;20032;-64
2021/12/06 23:18:57;;;;;;;2.80;2.40;;;;;;;;;;8284683;28;21011;-64
2021/12/06 23:22:57;;;;;;;4.20;2.90;;;;;;;;;;8285142;28;20029;-64
2021/12/06 23:26:58;;;;;;;4.13;3.00;;;;;;;;;;8288388;28;20497;-64
2021/12/06 23:31:01;;;;;;;5.00;3.20;;;;;;;;;;8291801;28;20573;-64
2021/12/06 23:35:04;;;;;;;3.35;3.03;;;;;;;;;;8295446;28;20064;-64
2021/12/06 23:47:43;;;;;;;2.50;2.30;;;;;;;;;;8290085;28;20099;-64
2021/12/06 23:51:45;;;;;;;2.13;1.98;;;;;;;;;;8292468;28;20028;-64
2021/12/06 23:55:45;;;;;;;2.35;2.10;;;;;;;;;;8293474;28;20067;-64
2021/12/06 23:59:45;;;;;;;2.28;1.80;;;;;;;;;;8295563;28;20036;-64
